sensor_id;sensor_type;location;lat;lon;timestamp;P1;durP1;ratioP1;P2;durP2;ratioP2
70247;SDS011;57641;51.416;5.506;2022-08-21T00:01:04;7.47;;;4.10;;
70247;SDS011;57641;51.416;5.506;2022-08-21T00:03:35;8.38;;;4.20;;
70247;SDS011;57641;51.416;5.506;2022-08-21T00:06:01;5.70;;;4.38;;
70247;SDS011;57641;51.416;5.506;2022-08-21T00:08:27;8.60;;;4.28;;
70247;SDS011;57641;51.416;5.506;2022-08-21T00:10:53;6.32;;;4.40;;
70247;SDS011;57641;51.416;5.506;2022-08-21T00:13:19;5.57;;;3.95;;
70247;SDS011;57641;51.416;5.506;2022-08-21T00:15:45;7.32;;;3.88;;
70247;SDS011;57641;51.416;5.506;2022-08-21T00:18:11;5.22;;;3.50;;
70247;SDS011;57641;51.416;5.506;2022-08-21T00:20:39;7.32;;;4.43;;
70247;SDS011;57641;51.416;5.506;2022-08-21T00:23:05;6.25;;;4.05;;
70247;SDS011;57641;51.416;5.506;2022-08-21T00:25:31;6.38;;;3.83;;
70247;SDS011;57641;51.416;5.506;2022-08-21T00:27:57;7.38;;;4.05;;
70247;SDS011;57641;51.416;5.506;2022-08-21T00:30:24;5.78;;;3.65;;
70247;SDS011;57641;51.416;5.506;2022-08-21T00:32:51;9.27;;;4.35;;
70247;SDS011;57641;51.416;5.506;2022-08-21T00:35:18;7.95;;;5.22;;
70247;SDS011;57641;51.416;5.506;2022-08-21T00:37:47;7.28;;;3.97;;
70247;SDS011;57641;51.416;5.506;2022-08-21T00:40:14;7.65;;;4.20;;
70247;SDS011;57641;51.416;5.506;2022-08-21T00:42:41;8.27;;;4.63;;
70247;SDS011;57641;51.416;5.506;2022-08-21T00:45:08;6.65;;;4.20;;
70247;SDS011;57641;51.416;5.506;2022-08-21T00:47:35;7.53;;;4.63;;
70247;SDS011;57641;51.416;5.506;2022-08-21T00:50:01;5.07;;;4.20;;
70247;SDS011;57641;51.416;5.506;2022-08-21T00:52:29;8.32;;;5.00;;
70247;SDS011;57641;51.416;5.506;2022-08-21T00:54:59;8.68;;;4.40;;
70247;SDS011;57641;51.416;5.506;2022-08-21T00:57:35;7.60;;;4.57;;
70247;SDS011;57641;51.416;5.506;2022-08-21T01:00:07;7.45;;;4.57;;
70247;SDS011;57641;51.416;5.506;2022-08-21T01:02:36;6.35;;;4.00;;
70247;SDS011;57641;51.416;5.506;2022-08-21T01:05:02;5.82;;;4.35;;
70247;SDS011;57641;51.416;5.506;2022-08-21T01:07:28;9.07;;;4.60;;
70247;SDS011;57641;51.416;5.506;2022-08-21T01:09:53;7.43;;;4.35;;
70247;SDS011;57641;51.416;5.506;2022-08-21T01:12:19;5.97;;;4.22;;
70247;SDS011;57641;51.416;5.506;2022-08-21T01:14:45;7.40;;;4.40;;
70247;SDS011;57641;51.416;5.506;2022-08-21T01:17:11;8.10;;;4.45;;
70247;SDS011;57641;51.416;5.506;2022-08-21T01:19:39;6.78;;;4.40;;
70247;SDS011;57641;51.416;5.506;2022-08-21T01:22:05;7.03;;;4.55;;
70247;SDS011;57641;51.416;5.506;2022-08-21T01:24:30;6.43;;;4.32;;
70247;SDS011;57641;51.416;5.506;2022-08-21T01:26:57;7.22;;;4.65;;
70247;SDS011;57641;51.416;5.506;2022-08-21T01:32:03;5.72;;;4.22;;
70247;SDS011;57641;51.416;5.506;2022-08-21T01:34:33;6.75;;;4.47;;
70247;SDS011;57641;51.416;5.506;2022-08-21T01:37:01;6.15;;;4.43;;
70247;SDS011;57641;51.416;5.506;2022-08-21T01:39:28;8.52;;;5.20;;
70247;SDS011;57641;51.416;5.506;2022-08-21T01:41:53;6.82;;;4.80;;
70247;SDS011;57641;51.416;5.506;2022-08-21T01:44:20;6.72;;;4.88;;
70247;SDS011;57641;51.416;5.506;2022-08-21T01:46:47;6.07;;;5.03;;
70247;SDS011;57641;51.416;5.506;2022-08-21T01:49:13;7.85;;;5.00;;
70247;SDS011;57641;51.416;5.506;2022-08-21T01:51:40;6.97;;;4.35;;
70247;SDS011;57641;51.416;5.506;2022-08-21T01:54:06;7.68;;;4.90;;
70247;SDS011;57641;51.416;5.506;2022-08-21T01:56:36;9.02;;;5.10;;
70247;SDS011;57641;51.416;5.506;2022-08-21T01:59:07;8.07;;;5.35;;
70247;SDS011;57641;51.416;5.506;2022-08-21T02:01:33;6.18;;;4.82;;
70247;SDS011;57641;51.416;5.506;2022-08-21T02:03:59;6.10;;;4.50;;
70247;SDS011;57641;51.416;5.506;2022-08-21T02:06:25;6.93;;;5.28;;
70247;SDS011;57641;51.416;5.506;2022-08-21T02:08:52;10.30;;;5.40;;
70247;SDS011;57641;51.416;5.506;2022-08-21T02:11:18;8.15;;;5.70;;
70247;SDS011;57641;51.416;5.506;2022-08-21T02:13:45;8.90;;;4.97;;
70247;SDS011;57641;51.416;5.506;2022-08-21T02:16:11;8.23;;;5.43;;
70247;SDS011;57641;51.416;5.506;2022-08-21T02:18:37;6.82;;;5.50;;
70247;SDS011;57641;51.416;5.506;2022-08-21T02:21:03;8.60;;;6.07;;
70247;SDS011;57641;51.416;5.506;2022-08-21T02:23:30;7.57;;;5.60;;
70247;SDS011;57641;51.416;5.506;2022-08-21T02:25:57;9.15;;;5.72;;
70247;SDS011;57641;51.416;5.506;2022-08-21T02:28:24;9.30;;;5.20;;
70247;SDS011;57641;51.416;5.506;2022-08-21T02:30:51;7.32;;;5.20;;
70247;SDS011;57641;51.416;5.506;2022-08-21T02:33:17;9.10;;;5.57;;
70247;SDS011;57641;51.416;5.506;2022-08-21T02:35:43;5.68;;;4.78;;
70247;SDS011;57641;51.416;5.506;2022-08-21T02:38:11;7.50;;;4.97;;
70247;SDS011;57641;51.416;5.506;2022-08-21T02:40:40;7.50;;;5.78;;
70247;SDS011;57641;51.416;5.506;2022-08-21T02:43:09;7.88;;;6.50;;
70247;SDS011;57641;51.416;5.506;2022-08-21T02:45:35;8.18;;;6.05;;
70247;SDS011;57641;51.416;5.506;2022-08-21T02:48:03;8.40;;;6.40;;
70247;SDS011;57641;51.416;5.506;2022-08-21T02:50:33;9.02;;;6.13;;
70247;SDS011;57641;51.416;5.506;2022-08-21T02:53:01;8.82;;;6.40;;
70247;SDS011;57641;51.416;5.506;2022-08-21T02:55:28;8.13;;;6.00;;
70247;SDS011;57641;51.416;5.506;2022-08-21T02:57:55;9.18;;;6.10;;
70247;SDS011;57641;51.416;5.506;2022-08-21T03:00:23;8.80;;;6.22;;
70247;SDS011;57641;51.416;5.506;2022-08-21T03:02:51;8.65;;;6.10;;
70247;SDS011;57641;51.416;5.506;2022-08-21T03:05:17;9.00;;;6.50;;
70247;SDS011;57641;51.416;5.506;2022-08-21T03:07:43;9.75;;;6.40;;
70247;SDS011;57641;51.416;5.506;2022-08-21T03:10:11;10.40;;;6.40;;
70247;SDS011;57641;51.416;5.506;2022-08-21T03:12:37;9.50;;;6.38;;
70247;SDS011;57641;51.416;5.506;2022-08-21T03:15:04;10.07;;;6.97;;
70247;SDS011;57641;51.416;5.506;2022-08-21T03:17:32;10.13;;;7.35;;
70247;SDS011;57641;51.416;5.506;2022-08-21T03:19:59;9.98;;;6.38;;
70247;SDS011;57641;51.416;5.506;2022-08-21T03:22:25;9.43;;;6.65;;
70247;SDS011;57641;51.416;5.506;2022-08-21T03:24:51;10.38;;;6.95;;
70247;SDS011;57641;51.416;5.506;2022-08-21T03:27:17;13.10;;;7.20;;
70247;SDS011;57641;51.416;5.506;2022-08-21T03:29:42;9.30;;;6.93;;
70247;SDS011;57641;51.416;5.506;2022-08-21T03:32:08;10.80;;;7.72;;
70247;SDS011;57641;51.416;5.506;2022-08-21T03:34:35;11.68;;;7.43;;
70247;SDS011;57641;51.416;5.506;2022-08-21T03:37:01;12.55;;;7.78;;
70247;SDS011;57641;51.416;5.506;2022-08-21T03:39:27;11.35;;;7.93;;
70247;SDS011;57641;51.416;5.506;2022-08-21T03:41:52;10.80;;;7.90;;
70247;SDS011;57641;51.416;5.506;2022-08-21T03:44:19;11.15;;;8.25;;
70247;SDS011;57641;51.416;5.506;2022-08-21T03:46:44;10.10;;;6.75;;
70247;SDS011;57641;51.416;5.506;2022-08-21T03:49:10;9.70;;;6.90;;
70247;SDS011;57641;51.416;5.506;2022-08-21T03:51:36;12.93;;;7.30;;
70247;SDS011;57641;51.416;5.506;2022-08-21T03:54:02;9.73;;;6.65;;
70247;SDS011;57641;51.416;5.506;2022-08-21T03:56:28;8.27;;;6.60;;
70247;SDS011;57641;51.416;5.506;2022-08-21T03:58:53;9.32;;;6.38;;
70247;SDS011;57641;51.416;5.506;2022-08-21T04:01:18;9.60;;;6.60;;
70247;SDS011;57641;51.416;5.506;2022-08-21T04:03:44;10.18;;;7.03;;
70247;SDS011;57641;51.416;5.506;2022-08-21T04:06:09;9.50;;;5.70;;
70247;SDS011;57641;51.416;5.506;2022-08-21T04:08:35;8.40;;;6.10;;
70247;SDS011;57641;51.416;5.506;2022-08-21T04:11:01;9.68;;;5.95;;
70247;SDS011;57641;51.416;5.506;2022-08-21T04:13:27;8.60;;;6.03;;
70247;SDS011;57641;51.416;5.506;2022-08-21T04:15:53;9.25;;;6.20;;
70247;SDS011;57641;51.416;5.506;2022-08-21T04:18:19;10.25;;;6.43;;
70247;SDS011;57641;51.416;5.506;2022-08-21T04:20:46;9.43;;;6.18;;
70247;SDS011;57641;51.416;5.506;2022-08-21T04:23:14;9.70;;;6.50;;
70247;SDS011;57641;51.416;5.506;2022-08-21T04:25:40;8.45;;;6.10;;
70247;SDS011;57641;51.416;5.506;2022-08-21T04:28:05;12.35;;;6.78;;
70247;SDS011;57641;51.416;5.506;2022-08-21T04:30:31;11.38;;;6.63;;
70247;SDS011;57641;51.416;5.506;2022-08-21T04:32:57;11.10;;;6.47;;
70247;SDS011;57641;51.416;5.506;2022-08-21T04:35:23;12.35;;;7.57;;
70247;SDS011;57641;51.416;5.506;2022-08-21T04:37:50;10.65;;;7.22;;
70247;SDS011;57641;51.416;5.506;2022-08-21T04:40:16;9.80;;;6.72;;
70247;SDS011;57641;51.416;5.506;2022-08-21T04:42:44;11.27;;;6.32;;
70247;SDS011;57641;51.416;5.506;2022-08-21T04:47:51;11.90;;;6.78;;
70247;SDS011;57641;51.416;5.506;2022-08-21T04:50:19;12.57;;;6.85;;
70247;SDS011;57641;51.416;5.506;2022-08-21T04:52:47;8.15;;;6.00;;
70247;SDS011;57641;51.416;5.506;2022-08-21T04:55:13;10.40;;;6.47;;
70247;SDS011;57641;51.416;5.506;2022-08-21T04:57:39;11.27;;;6.75;;
70247;SDS011;57641;51.416;5.506;2022-08-21T05:00:05;9.45;;;6.43;;
70247;SDS011;57641;51.416;5.506;2022-08-21T05:02:32;9.55;;;5.80;;
70247;SDS011;57641;51.416;5.506;2022-08-21T05:04:58;8.63;;;6.43;;
70247;SDS011;57641;51.416;5.506;2022-08-21T05:07:25;8.52;;;6.25;;
70247;SDS011;57641;51.416;5.506;2022-08-21T05:09:53;8.52;;;5.50;;
70247;SDS011;57641;51.416;5.506;2022-08-21T05:12:19;9.68;;;6.25;;
70247;SDS011;57641;51.416;5.506;2022-08-21T05:14:45;10.77;;;6.40;;
70247;SDS011;57641;51.416;5.506;2022-08-21T05:17:12;11.77;;;6.10;;
70247;SDS011;57641;51.416;5.506;2022-08-21T05:19:37;10.98;;;5.93;;
70247;SDS011;57641;51.416;5.506;2022-08-21T05:22:03;9.52;;;5.38;;
70247;SDS011;57641;51.416;5.506;2022-08-21T05:24:28;10.15;;;6.15;;
70247;SDS011;57641;51.416;5.506;2022-08-21T05:26:54;8.10;;;5.80;;
70247;SDS011;57641;51.416;5.506;2022-08-21T05:29:20;10.40;;;5.63;;
70247;SDS011;57641;51.416;5.506;2022-08-21T05:31:46;11.02;;;5.95;;
70247;SDS011;57641;51.416;5.506;2022-08-21T05:34:13;8.13;;;5.10;;
70247;SDS011;57641;51.416;5.506;2022-08-21T05:36:40;6.85;;;5.40;;
70247;SDS011;57641;51.416;5.506;2022-08-21T05:39:05;9.55;;;5.82;;
70247;SDS011;57641;51.416;5.506;2022-08-21T05:41:31;11.45;;;5.50;;
70247;SDS011;57641;51.416;5.506;2022-08-21T05:43:56;7.32;;;4.95;;
70247;SDS011;57641;51.416;5.506;2022-08-21T05:46:22;10.13;;;5.50;;
70247;SDS011;57641;51.416;5.506;2022-08-21T05:48:47;9.48;;;5.03;;
70247;SDS011;57641;51.416;5.506;2022-08-21T05:51:14;11.45;;;5.55;;
70247;SDS011;57641;51.416;5.506;2022-08-21T05:53:40;9.18;;;4.80;;
70247;SDS011;57641;51.416;5.506;2022-08-21T05:56:07;8.55;;;4.82;;
70247;SDS011;57641;51.416;5.506;2022-08-21T05:58:34;9.70;;;5.30;;
70247;SDS011;57641;51.416;5.506;2022-08-21T06:01:01;8.32;;;5.05;;
70247;SDS011;57641;51.416;5.506;2022-08-21T06:03:31;7.40;;;4.65;;
70247;SDS011;57641;51.416;5.506;2022-08-21T06:05:59;7.60;;;4.68;;
70247;SDS011;57641;51.416;5.506;2022-08-21T06:08:24;6.13;;;4.57;;
70247;SDS011;57641;51.416;5.506;2022-08-21T06:10:51;11.88;;;4.85;;
70247;SDS011;57641;51.416;5.506;2022-08-21T06:13:18;11.07;;;4.82;;
70247;SDS011;57641;51.416;5.506;2022-08-21T06:15:46;7.00;;;4.30;;
70247;SDS011;57641;51.416;5.506;2022-08-21T06:18:12;8.70;;;4.30;;
70247;SDS011;57641;51.416;5.506;2022-08-21T06:20:40;8.73;;;4.43;;
70247;SDS011;57641;51.416;5.506;2022-08-21T06:23:06;7.28;;;4.15;;
70247;SDS011;57641;51.416;5.506;2022-08-21T06:25:31;13.23;;;4.30;;
70247;SDS011;57641;51.416;5.506;2022-08-21T06:28:07;10.48;;;4.60;;
70247;SDS011;57641;51.416;5.506;2022-08-21T06:30:34;9.40;;;3.83;;
70247;SDS011;57641;51.416;5.506;2022-08-21T06:33:01;9.05;;;4.13;;
70247;SDS011;57641;51.416;5.506;2022-08-21T06:35:28;6.82;;;3.25;;
70247;SDS011;57641;51.416;5.506;2022-08-21T06:37:55;8.63;;;3.50;;
70247;SDS011;57641;51.416;5.506;2022-08-21T06:40:22;11.50;;;3.42;;
70247;SDS011;57641;51.416;5.506;2022-08-21T06:42:47;9.23;;;3.30;;
70247;SDS011;57641;51.416;5.506;2022-08-21T06:45:13;9.18;;;3.63;;
70247;SDS011;57641;51.416;5.506;2022-08-21T06:47:39;6.35;;;3.80;;
70247;SDS011;57641;51.416;5.506;2022-08-21T06:50:05;6.13;;;3.03;;
70247;SDS011;57641;51.416;5.506;2022-08-21T06:52:33;8.77;;;3.50;;
70247;SDS011;57641;51.416;5.506;2022-08-21T06:54:59;7.60;;;3.58;;
70247;SDS011;57641;51.416;5.506;2022-08-21T06:57:24;8.90;;;3.55;;
70247;SDS011;57641;51.416;5.506;2022-08-21T06:59:50;7.43;;;3.10;;
70247;SDS011;57641;51.416;5.506;2022-08-21T07:02:16;10.07;;;3.08;;
70247;SDS011;57641;51.416;5.506;2022-08-21T07:04:42;7.72;;;2.67;;
70247;SDS011;57641;51.416;5.506;2022-08-21T07:07:08;6.82;;;2.90;;
70247;SDS011;57641;51.416;5.506;2022-08-21T07:09:33;7.13;;;2.88;;
70247;SDS011;57641;51.416;5.506;2022-08-21T07:11:59;7.10;;;2.80;;
70247;SDS011;57641;51.416;5.506;2022-08-21T07:14:25;9.85;;;3.30;;
70247;SDS011;57641;51.416;5.506;2022-08-21T07:16:50;5.70;;;3.00;;
70247;SDS011;57641;51.416;5.506;2022-08-21T07:19:16;10.32;;;2.90;;
70247;SDS011;57641;51.416;5.506;2022-08-21T07:21:43;9.57;;;3.40;;
70247;SDS011;57641;51.416;5.506;2022-08-21T07:24:08;8.27;;;3.00;;
70247;SDS011;57641;51.416;5.506;2022-08-21T07:26:34;9.02;;;3.50;;
70247;SDS011;57641;51.416;5.506;2022-08-21T07:28:59;9.52;;;3.38;;
70247;SDS011;57641;51.416;5.506;2022-08-21T07:31:25;10.88;;;2.83;;
70247;SDS011;57641;51.416;5.506;2022-08-21T07:33:52;9.80;;;3.33;;
70247;SDS011;57641;51.416;5.506;2022-08-21T07:36:18;9.73;;;3.05;;
70247;SDS011;57641;51.416;5.506;2022-08-21T07:38:43;10.55;;;2.88;;
70247;SDS011;57641;51.416;5.506;2022-08-21T07:41:13;7.72;;;2.80;;
70247;SDS011;57641;51.416;5.506;2022-08-21T07:43:41;9.93;;;3.22;;
70247;SDS011;57641;51.416;5.506;2022-08-21T07:46:06;8.25;;;3.15;;
70247;SDS011;57641;51.416;5.506;2022-08-21T07:48:32;10.18;;;2.70;;
70247;SDS011;57641;51.416;5.506;2022-08-21T07:50:58;7.43;;;2.90;;
70247;SDS011;57641;51.416;5.506;2022-08-21T07:53:30;5.85;;;2.50;;
70247;SDS011;57641;51.416;5.506;2022-08-21T07:55:58;10.93;;;3.00;;
70247;SDS011;57641;51.416;5.506;2022-08-21T07:58:24;11.13;;;3.10;;
70247;SDS011;57641;51.416;5.506;2022-08-21T08:00:49;10.35;;;2.38;;
70247;SDS011;57641;51.416;5.506;2022-08-21T08:03:15;12.25;;;2.63;;
70247;SDS011;57641;51.416;5.506;2022-08-21T08:05:41;12.82;;;3.53;;
70247;SDS011;57641;51.416;5.506;2022-08-21T08:08:06;10.30;;;2.75;;
70247;SDS011;57641;51.416;5.506;2022-08-21T08:10:32;8.98;;;2.85;;
70247;SDS011;57641;51.416;5.506;2022-08-21T08:12:58;7.78;;;2.70;;
70247;SDS011;57641;51.416;5.506;2022-08-21T08:15:25;7.63;;;2.25;;
70247;SDS011;57641;51.416;5.506;2022-08-21T08:17:52;11.13;;;2.28;;
70247;SDS011;57641;51.416;5.506;2022-08-21T08:20:19;6.65;;;2.55;;
70247;SDS011;57641;51.416;5.506;2022-08-21T08:22:46;6.85;;;2.10;;
70247;SDS011;57641;51.416;5.506;2022-08-21T08:25:13;6.32;;;2.10;;
70247;SDS011;57641;51.416;5.506;2022-08-21T08:27:39;10.27;;;2.42;;
70247;SDS011;57641;51.416;5.506;2022-08-21T08:30:06;6.63;;;1.70;;
70247;SDS011;57641;51.416;5.506;2022-08-21T08:32:33;6.50;;;1.90;;
70247;SDS011;57641;51.416;5.506;2022-08-21T08:34:58;12.65;;;2.03;;
70247;SDS011;57641;51.416;5.506;2022-08-21T08:37:24;6.38;;;2.65;;
70247;SDS011;57641;51.416;5.506;2022-08-21T08:39:50;6.72;;;1.98;;
70247;SDS011;57641;51.416;5.506;2022-08-21T08:42:19;7.95;;;2.17;;
70247;SDS011;57641;51.416;5.506;2022-08-21T08:44:55;8.98;;;2.25;;
70247;SDS011;57641;51.416;5.506;2022-08-21T08:47:25;9.50;;;2.40;;
70247;SDS011;57641;51.416;5.506;2022-08-21T08:52:34;7.95;;;2.20;;
70247;SDS011;57641;51.416;5.506;2022-08-21T08:55:12;7.10;;;1.70;;
70247;SDS011;57641;51.416;5.506;2022-08-21T08:57:46;9.00;;;2.50;;
70247;SDS011;57641;51.416;5.506;2022-08-21T09:00:15;6.95;;;1.83;;
70247;SDS011;57641;51.416;5.506;2022-08-21T09:02:45;9.30;;;1.95;;
70247;SDS011;57641;51.416;5.506;2022-08-21T09:05:22;7.53;;;2.00;;
70247;SDS011;57641;51.416;5.506;2022-08-21T09:11:04;6.57;;;2.03;;
70247;SDS011;57641;51.416;5.506;2022-08-21T09:13:53;4.18;;;1.63;;
70247;SDS011;57641;51.416;5.506;2022-08-21T09:19:07;5.97;;;1.90;;
70247;SDS011;57641;51.416;5.506;2022-08-21T09:22:15;3.85;;;1.67;;
70247;SDS011;57641;51.416;5.506;2022-08-21T09:27:47;6.78;;;1.70;;
70247;SDS011;57641;51.416;5.506;2022-08-21T09:30:13;7.72;;;1.50;;
70247;SDS011;57641;51.416;5.506;2022-08-21T09:32:39;6.18;;;1.75;;
70247;SDS011;57641;51.416;5.506;2022-08-21T09:37:44;4.97;;;1.65;;
70247;SDS011;57641;51.416;5.506;2022-08-21T09:42:58;5.88;;;1.60;;
70247;SDS011;57641;51.416;5.506;2022-08-21T09:45:27;6.63;;;1.67;;
70247;SDS011;57641;51.416;5.506;2022-08-21T09:47:53;4.80;;;1.45;;
70247;SDS011;57641;51.416;5.506;2022-08-21T09:50:23;5.45;;;1.48;;
70247;SDS011;57641;51.416;5.506;2022-08-21T09:52:53;3.83;;;1.30;;
70247;SDS011;57641;51.416;5.506;2022-08-21T09:55:34;5.43;;;1.45;;
70247;SDS011;57641;51.416;5.506;2022-08-21T09:58:33;3.20;;;1.60;;
70247;SDS011;57641;51.416;5.506;2022-08-21T10:01:01;7.28;;;1.65;;
70247;SDS011;57641;51.416;5.506;2022-08-21T10:03:28;4.07;;;1.38;;
70247;SDS011;57641;51.416;5.506;2022-08-21T10:06:03;6.88;;;1.70;;
70247;SDS011;57641;51.416;5.506;2022-08-21T10:08:33;4.85;;;1.30;;
70247;SDS011;57641;51.416;5.506;2022-08-21T10:11:03;7.10;;;1.80;;
70247;SDS011;57641;51.416;5.506;2022-08-21T10:19:04;6.95;;;1.40;;
70247;SDS011;57641;51.416;5.506;2022-08-21T10:21:37;7.85;;;1.85;;
70247;SDS011;57641;51.416;5.506;2022-08-21T10:24:19;6.47;;;1.40;;
70247;SDS011;57641;51.416;5.506;2022-08-21T10:29:55;4.32;;;1.77;;
70247;SDS011;57641;51.416;5.506;2022-08-21T10:37:52;6.18;;;1.33;;
70247;SDS011;57641;51.416;5.506;2022-08-21T10:40:58;5.88;;;1.70;;
70247;SDS011;57641;51.416;5.506;2022-08-21T10:43:35;4.00;;;1.25;;
70247;SDS011;57641;51.416;5.506;2022-08-21T10:46:15;5.90;;;1.63;;
70247;SDS011;57641;51.416;5.506;2022-08-21T10:55:08;6.57;;;1.40;;
70247;SDS011;57641;51.416;5.506;2022-08-21T10:58:01;4.63;;;1.35;;
70247;SDS011;57641;51.416;5.506;2022-08-21T11:00:41;6.55;;;1.30;;
70247;SDS011;57641;51.416;5.506;2022-08-21T11:05:57;3.35;;;1.33;;
70247;SDS011;57641;51.416;5.506;2022-08-21T11:08:56;5.25;;;1.58;;
70247;SDS011;57641;51.416;5.506;2022-08-21T11:11:35;7.22;;;1.50;;
70247;SDS011;57641;51.416;5.506;2022-08-21T11:16:41;7.28;;;1.80;;
70247;SDS011;57641;51.416;5.506;2022-08-21T11:22:13;7.53;;;1.95;;
70247;SDS011;57641;51.416;5.506;2022-08-21T11:24:58;6.65;;;1.65;;
70247;SDS011;57641;51.416;5.506;2022-08-21T11:28:13;3.97;;;1.45;;
70247;SDS011;57641;51.416;5.506;2022-08-21T11:30:21;5.47;;;1.80;;
70247;SDS011;57641;51.416;5.506;2022-08-21T11:33:13;4.20;;;2.33;;
70247;SDS011;57641;51.416;5.506;2022-08-21T11:35:55;6.50;;;1.90;;
70247;SDS011;57641;51.416;5.506;2022-08-21T11:55:12;5.63;;;1.83;;
70247;SDS011;57641;51.416;5.506;2022-08-21T11:57:52;5.80;;;1.88;;
70247;SDS011;57641;51.416;5.506;2022-08-21T12:00:28;4.55;;;1.98;;
70247;SDS011;57641;51.416;5.506;2022-08-21T12:02:55;4.53;;;1.85;;
70247;SDS011;57641;51.416;5.506;2022-08-21T12:05:36;5.20;;;1.80;;
70247;SDS011;57641;51.416;5.506;2022-08-21T12:08:06;6.07;;;1.95;;
70247;SDS011;57641;51.416;5.506;2022-08-21T12:10:46;5.07;;;1.60;;
70247;SDS011;57641;51.416;5.506;2022-08-21T12:13:25;4.72;;;1.75;;
70247;SDS011;57641;51.416;5.506;2022-08-21T12:16:04;4.65;;;1.65;;
70247;SDS011;57641;51.416;5.506;2022-08-21T12:18:35;2.45;;;1.30;;
70247;SDS011;57641;51.416;5.506;2022-08-21T12:27:17;3.10;;;1.35;;
70247;SDS011;57641;51.416;5.506;2022-08-21T12:29:26;3.63;;;1.75;;
70247;SDS011;57641;51.416;5.506;2022-08-21T12:34:35;5.43;;;2.10;;
70247;SDS011;57641;51.416;5.506;2022-08-21T12:37:25;5.22;;;1.83;;
70247;SDS011;57641;51.416;5.506;2022-08-21T12:39:57;4.28;;;1.40;;
70247;SDS011;57641;51.416;5.506;2022-08-21T12:42:38;5.82;;;1.70;;
70247;SDS011;57641;51.416;5.506;2022-08-21T12:47:56;6.05;;;2.20;;
70247;SDS011;57641;51.416;5.506;2022-08-21T12:53:56;4.07;;;1.83;;
70247;SDS011;57641;51.416;5.506;2022-08-21T12:56:31;3.83;;;2.05;;
70247;SDS011;57641;51.416;5.506;2022-08-21T13:01:33;4.53;;;1.95;;
70247;SDS011;57641;51.416;5.506;2022-08-21T13:04:06;4.63;;;2.30;;
70247;SDS011;57641;51.416;5.506;2022-08-21T13:06:41;4.68;;;2.08;;
70247;SDS011;57641;51.416;5.506;2022-08-21T13:09:14;6.88;;;2.00;;
70247;SDS011;57641;51.416;5.506;2022-08-21T13:11:42;4.68;;;2.03;;
70247;SDS011;57641;51.416;5.506;2022-08-21T13:14:13;4.50;;;1.60;;
70247;SDS011;57641;51.416;5.506;2022-08-21T13:16:47;7.00;;;2.60;;
70247;SDS011;57641;51.416;5.506;2022-08-21T13:19:17;4.63;;;2.28;;
70247;SDS011;57641;51.416;5.506;2022-08-21T13:21:44;5.25;;;2.05;;
70247;SDS011;57641;51.416;5.506;2022-08-21T13:24:14;4.15;;;2.00;;
70247;SDS011;57641;51.416;5.506;2022-08-21T13:26:47;6.43;;;2.63;;
70247;SDS011;57641;51.416;5.506;2022-08-21T13:29:14;6.97;;;2.08;;
70247;SDS011;57641;51.416;5.506;2022-08-21T13:31:46;7.05;;;2.67;;
70247;SDS011;57641;51.416;5.506;2022-08-21T13:34:16;9.25;;;2.85;;
70247;SDS011;57641;51.416;5.506;2022-08-21T13:36:44;6.90;;;3.17;;
70247;SDS011;57641;51.416;5.506;2022-08-21T13:39:12;5.82;;;2.67;;
70247;SDS011;57641;51.416;5.506;2022-08-21T13:41:44;6.43;;;2.72;;
70247;SDS011;57641;51.416;5.506;2022-08-21T13:46:43;5.55;;;2.63;;
70247;SDS011;57641;51.416;5.506;2022-08-21T13:49:09;5.13;;;3.20;;
70247;SDS011;57641;51.416;5.506;2022-08-21T13:51:38;7.80;;;3.35;;
70247;SDS011;57641;51.416;5.506;2022-08-21T13:54:22;6.63;;;3.45;;
70247;SDS011;57641;51.416;5.506;2022-08-21T13:56:51;8.63;;;2.88;;
70247;SDS011;57641;51.416;5.506;2022-08-21T13:59:23;9.82;;;3.53;;
70247;SDS011;57641;51.416;5.506;2022-08-21T14:01:51;7.28;;;3.30;;
70247;SDS011;57641;51.416;5.506;2022-08-21T14:04:33;7.25;;;3.63;;
70247;SDS011;57641;51.416;5.506;2022-08-21T14:07:01;5.10;;;3.55;;
70247;SDS011;57641;51.416;5.506;2022-08-21T14:09:40;6.88;;;4.30;;
70247;SDS011;57641;51.416;5.506;2022-08-21T14:12:28;7.68;;;4.20;;
70247;SDS011;57641;51.416;5.506;2022-08-21T14:15:02;9.00;;;4.60;;
70247;SDS011;57641;51.416;5.506;2022-08-21T14:17:35;7.72;;;4.32;;
70247;SDS011;57641;51.416;5.506;2022-08-21T14:20:04;8.45;;;4.38;;
70247;SDS011;57641;51.416;5.506;2022-08-21T14:25:00;4.88;;;3.00;;
70247;SDS011;57641;51.416;5.506;2022-08-21T14:27:31;6.30;;;3.50;;
70247;SDS011;57641;51.416;5.506;2022-08-21T14:30:00;7.57;;;3.90;;
70247;SDS011;57641;51.416;5.506;2022-08-21T14:32:30;8.10;;;4.28;;
70247;SDS011;57641;51.416;5.506;2022-08-21T14:35:03;6.85;;;4.25;;
70247;SDS011;57641;51.416;5.506;2022-08-21T14:37:29;6.22;;;3.90;;
70247;SDS011;57641;51.416;5.506;2022-08-21T14:39:54;7.97;;;4.10;;
70247;SDS011;57641;51.416;5.506;2022-08-21T14:42:20;7.78;;;3.78;;
70247;SDS011;57641;51.416;5.506;2022-08-21T14:44:46;6.88;;;3.72;;
70247;SDS011;57641;51.416;5.506;2022-08-21T14:47:12;5.95;;;3.17;;
70247;SDS011;57641;51.416;5.506;2022-08-21T14:49:37;5.68;;;3.55;;
70247;SDS011;57641;51.416;5.506;2022-08-21T14:52:03;7.78;;;3.83;;
70247;SDS011;57641;51.416;5.506;2022-08-21T14:54:29;6.50;;;3.28;;
70247;SDS011;57641;51.416;5.506;2022-08-21T14:56:57;6.57;;;3.75;;
70247;SDS011;57641;51.416;5.506;2022-08-21T14:59:25;10.50;;;4.63;;
70247;SDS011;57641;51.416;5.506;2022-08-21T15:01:50;7.00;;;3.80;;
70247;SDS011;57641;51.416;5.506;2022-08-21T15:04:17;4.68;;;2.92;;
70247;SDS011;57641;51.416;5.506;2022-08-21T15:06:42;7.47;;;3.50;;
70247;SDS011;57641;51.416;5.506;2022-08-21T15:09:08;6.68;;;3.78;;
70247;SDS011;57641;51.416;5.506;2022-08-21T15:11:34;8.00;;;3.67;;
70247;SDS011;57641;51.416;5.506;2022-08-21T15:14:00;5.82;;;3.50;;
70247;SDS011;57641;51.416;5.506;2022-08-21T15:16:29;7.40;;;4.00;;
70247;SDS011;57641;51.416;5.506;2022-08-21T15:18:56;6.20;;;4.10;;
70247;SDS011;57641;51.416;5.506;2022-08-21T15:21:22;8.13;;;3.75;;
70247;SDS011;57641;51.416;5.506;2022-08-21T15:23:47;7.38;;;3.92;;
70247;SDS011;57641;51.416;5.506;2022-08-21T15:26:13;5.57;;;3.65;;
70247;SDS011;57641;51.416;5.506;2022-08-21T15:28:39;6.45;;;4.07;;
70247;SDS011;57641;51.416;5.506;2022-08-21T15:31:05;9.23;;;4.40;;
70247;SDS011;57641;51.416;5.506;2022-08-21T15:33:30;8.98;;;4.22;;
70247;SDS011;57641;51.416;5.506;2022-08-21T15:35:56;7.25;;;3.67;;
70247;SDS011;57641;51.416;5.506;2022-08-21T15:38:22;7.72;;;3.72;;
70247;SDS011;57641;51.416;5.506;2022-08-21T15:40:48;7.47;;;3.40;;
70247;SDS011;57641;51.416;5.506;2022-08-21T15:43:27;10.30;;;3.72;;
70247;SDS011;57641;51.416;5.506;2022-08-21T15:45:54;6.60;;;3.40;;
70247;SDS011;57641;51.416;5.506;2022-08-21T15:48:21;7.97;;;3.10;;
70247;SDS011;57641;51.416;5.506;2022-08-21T15:50:46;9.43;;;3.80;;
70247;SDS011;57641;51.416;5.506;2022-08-21T15:53:12;6.63;;;3.10;;
70247;SDS011;57641;51.416;5.506;2022-08-21T15:55:38;8.98;;;3.90;;
70247;SDS011;57641;51.416;5.506;2022-08-21T15:58:04;11.02;;;4.03;;
70247;SDS011;57641;51.416;5.506;2022-08-21T16:00:31;5.28;;;3.60;;
70247;SDS011;57641;51.416;5.506;2022-08-21T16:03:08;9.93;;;4.45;;
70247;SDS011;57641;51.416;5.506;2022-08-21T16:05:36;7.53;;;4.78;;
70247;SDS011;57641;51.416;5.506;2022-08-21T16:08:02;10.30;;;4.20;;
70247;SDS011;57641;51.416;5.506;2022-08-21T16:10:28;8.73;;;3.70;;
70247;SDS011;57641;51.416;5.506;2022-08-21T16:12:56;10.93;;;4.20;;
70247;SDS011;57641;51.416;5.506;2022-08-21T16:15:25;7.47;;;3.65;;
70247;SDS011;57641;51.416;5.506;2022-08-21T16:17:52;8.43;;;3.50;;
70247;SDS011;57641;51.416;5.506;2022-08-21T16:20:27;9.48;;;3.53;;
70247;SDS011;57641;51.416;5.506;2022-08-21T16:22:54;8.30;;;4.40;;
70247;SDS011;57641;51.416;5.506;2022-08-21T16:25:22;8.80;;;3.90;;